createdAt,value
2023-08-28T00:36:32.010Z,1.30
2023-08-28T00:38:58.870Z,1.30
2023-08-28T00:41:26.362Z,1.40
2023-08-28T00:43:53.088Z,1.60
2023-08-28T00:46:19.848Z,1.50
2023-08-28T00:48:47.117Z,1.20
2023-08-28T00:51:14.013Z,1.50
2023-08-28T00:53:41.086Z,1.30
2023-08-28T00:56:08.373Z,1.60
2023-08-28T00:58:35.470Z,1.30
2023-08-28T01:01:02.472Z,1.50
2023-08-28T01:03:29.379Z,1.10
2023-08-28T01:05:59.039Z,1.90
2023-08-28T01:08:54.494Z,1.60
2023-08-28T05:05:31.653Z,7.80
2023-08-28T05:07:58.928Z,8.20
2023-08-28T05:10:27.790Z,9.50
2023-08-28T05:12:54.461Z,8.40
2023-08-28T05:15:25.985Z,8.50
2023-08-28T05:17:52.998Z,8.00
2023-08-28T05:20:19.841Z,7.90
2023-08-28T05:22:47.776Z,7.00
2023-08-28T05:25:14.664Z,8.90
2023-08-28T05:27:41.330Z,8.60
2023-08-28T05:30:08.703Z,8.00
2023-08-28T05:32:36.508Z,8.10
2023-08-28T05:35:04.700Z,9.20
2023-08-28T05:37:34.298Z,8.60
2023-08-28T05:40:00.990Z,8.00
2023-08-28T05:42:31.018Z,6.80
2023-08-28T05:45:00.444Z,7.70
2023-08-28T05:47:27.371Z,8.10
2023-08-28T05:49:54.084Z,8.60
2023-08-28T05:52:21.258Z,5.90
2023-08-28T05:54:48.508Z,6.60
2023-08-28T05:57:19.464Z,7.40
2023-08-28T05:59:46.958Z,7.70
2023-08-28T06:02:14.194Z,6.70
2023-08-28T06:04:46.014Z,5.80
2023-08-28T06:07:12.831Z,5.70
2023-08-28T06:09:40.076Z,6.60
2023-08-28T06:12:10.530Z,6.20
2023-08-28T06:14:37.099Z,4.80
2023-08-28T06:17:04.084Z,5.10
2023-08-28T06:19:31.020Z,4.30
2023-08-28T06:22:05.574Z,4.60
2023-08-28T06:24:32.581Z,5.60
2023-08-28T06:26:59.677Z,5.20
2023-08-28T06:29:30.071Z,6.60
2023-08-28T06:31:57.129Z,5.70
2023-08-28T06:34:29.104Z,5.10
2023-08-28T06:36:57.156Z,5.00
2023-08-28T06:39:25.491Z,6.20
2023-08-28T08:54:25.165Z,3.90
2023-08-28T10:25:37.026Z,2.80
2023-08-28T10:28:05.922Z,2.80
2023-08-28T10:30:36.646Z,2.30
2023-08-28T10:33:06.689Z,2.30
2023-08-28T10:35:34.462Z,2.30
2023-08-28T10:38:02.442Z,2.30
2023-08-28T10:40:30.622Z,2.20
2023-08-28T10:43:01.661Z,2.10
2023-08-28T10:45:32.975Z,2.30
2023-08-28T10:48:00.361Z,2.70
2023-08-28T10:50:34.711Z,2.80
2023-08-28T10:53:05.357Z,3.20
2023-08-28T10:55:36.172Z,3.10
2023-08-28T10:58:05.918Z,3.60
2023-08-28T11:00:35.282Z,3.30
2023-08-28T11:03:09.109Z,2.90
2023-08-28T11:05:40.124Z,3.10
2023-08-28T11:08:10.200Z,2.70
2023-08-28T11:10:38.721Z,2.80
2023-08-28T11:13:07.605Z,2.50
2023-08-28T11:15:40.118Z,2.70
2023-08-28T11:18:22.264Z,2.50
2023-08-28T11:20:54.789Z,2.50
2023-08-28T11:23:37.332Z,2.60
2023-08-28T11:26:27.261Z,3.20
2023-08-28T11:29:24.537Z,2.50
2023-08-28T11:31:54.417Z,2.10
2023-08-28T11:34:21.045Z,2.20
2023-08-28T11:36:48.261Z,2.50
2023-08-28T11:39:27.014Z,2.20
2023-08-28T11:41:54.494Z,2.20
2023-08-28T11:44:26.020Z,1.90
2023-08-28T11:46:55.702Z,2.20
2023-08-28T11:49:22.768Z,2.00
2023-08-28T11:51:50.063Z,2.40
2023-08-28T11:54:20.306Z,2.70
2023-08-28T11:56:47.687Z,2.30
2023-08-28T11:59:19.782Z,2.40
2023-08-28T12:01:57.766Z,2.40
2023-08-28T12:04:27.521Z,2.20
2023-08-28T12:06:54.445Z,2.20
2023-08-28T12:09:22.875Z,2.30
2023-08-28T12:11:52.849Z,2.20
2023-08-28T12:14:20.821Z,2.30
2023-08-28T12:16:52.471Z,1.80
2023-08-28T12:19:23.365Z,2.60
2023-08-28T12:21:50.632Z,2.00
2023-08-28T12:24:46.480Z,2.20
2023-08-28T12:27:24.306Z,2.30
2023-08-28T12:29:51.869Z,2.40
2023-08-28T12:32:20.171Z,2.70
2023-08-28T12:34:49.054Z,2.60
2023-08-28T12:37:17.388Z,2.50
2023-08-28T12:39:47.641Z,1.90
2023-08-28T12:42:20.674Z,2.20
2023-08-28T12:44:48.314Z,2.20
2023-08-28T12:47:18.422Z,2.20
2023-08-28T14:17:43.632Z,2.60
2023-08-28T14:20:11.083Z,3.10
2023-08-28T14:22:37.664Z,3.20
2023-08-28T14:25:09.236Z,2.90
2023-08-28T14:27:46.996Z,2.80
2023-08-28T14:30:18.331Z,3.10
2023-08-28T14:32:47.703Z,3.20
2023-08-28T14:35:17.660Z,3.10
2023-08-28T14:37:46.757Z,2.90
2023-08-28T14:40:15.224Z,2.70
2023-08-28T14:42:44.093Z,2.90
2023-08-28T14:45:11.094Z,3.10
2023-08-28T14:47:38.346Z,2.80
2023-08-28T14:50:06.288Z,2.90
2023-08-28T14:52:33.368Z,2.60
2023-08-28T14:55:00.892Z,3.10
2023-08-28T14:57:28.080Z,2.60
2023-08-28T14:59:56.319Z,2.90
2023-08-28T15:02:24.655Z,2.90
2023-08-28T15:04:51.800Z,2.50
2023-08-28T15:07:18.606Z,3.30
2023-08-28T15:09:45.215Z,2.70
2023-08-28T15:12:13.665Z,2.60
2023-08-28T15:14:41.838Z,2.50
2023-08-28T15:17:09.370Z,2.70
2023-08-28T15:19:39.472Z,3.10
2023-08-28T15:22:06.470Z,3.10
2023-08-28T15:24:33.428Z,3.60
2023-08-28T15:27:00.372Z,3.20
2023-08-28T15:29:27.271Z,3.80
2023-08-28T15:31:56.933Z,3.70
2023-08-28T15:34:23.920Z,3.20
2023-08-28T15:36:51.580Z,3.30
2023-08-28T15:39:20.844Z,3.50
2023-08-28T15:41:50.085Z,3.00
2023-08-28T15:44:18.915Z,3.80
2023-08-28T15:46:48.086Z,3.10
2023-08-28T15:49:14.671Z,3.20
2023-08-28T15:51:41.798Z,3.20
2023-08-28T15:54:08.545Z,3.80
2023-08-28T15:56:35.542Z,3.40
2023-08-28T15:59:13.684Z,3.80
2023-08-28T16:01:46.307Z,3.40
2023-08-28T16:04:13.855Z,4.00
2023-08-28T16:06:40.524Z,3.20
2023-08-28T16:09:07.432Z,3.30
2023-08-28T16:11:36.440Z,3.70
2023-08-28T16:14:03.008Z,4.20
2023-08-28T16:16:30.197Z,4.70
2023-08-28T16:18:58.214Z,3.90
2023-08-28T16:21:24.821Z,4.70
2023-08-28T16:23:53.646Z,10.50
2023-08-28T16:26:20.475Z,5.10
2023-08-28T16:28:46.935Z,4.20
2023-08-28T16:31:15.807Z,4.20
2023-08-28T16:33:45.160Z,4.80
2023-08-28T16:36:11.964Z,4.40
2023-08-28T16:38:38.665Z,4.30
2023-08-28T16:41:05.350Z,3.90
2023-08-28T16:43:32.220Z,4.20
2023-08-28T16:45:59.224Z,3.90
2023-08-28T16:48:28.593Z,4.50
2023-08-28T16:50:55.271Z,5.00
2023-08-28T16:53:21.841Z,4.50
2023-08-28T16:55:50.844Z,4.40
2023-08-28T16:58:19.520Z,4.70
2023-08-28T17:00:46.999Z,4.60
2023-08-28T17:03:17.982Z,4.80
2023-08-28T17:08:21.350Z,4.80
2023-08-28T17:10:50.430Z,5.00
2023-08-28T17:13:17.170Z,4.80
2023-08-28T17:15:45.374Z,5.00
2023-08-28T17:18:12.004Z,5.00
2023-08-28T17:20:41.300Z,5.30
2023-08-28T17:23:07.938Z,5.00
2023-08-28T17:25:34.637Z,5.10
2023-08-28T17:28:01.348Z,5.30
2023-08-28T17:30:27.965Z,5.40
2023-08-28T17:32:57.687Z,5.40
2023-08-28T17:35:24.242Z,5.00
2023-08-28T17:37:51.291Z,5.30
2023-08-28T17:40:18.097Z,5.10
2023-08-28T17:42:44.653Z,5.10
2023-08-28T17:45:13.596Z,5.10
2023-08-28T17:47:40.565Z,5.00
2023-08-28T17:50:08.417Z,5.70
2023-08-28T17:52:37.814Z,5.80
2023-08-28T17:55:06.920Z,5.90
2023-08-28T17:57:33.674Z,6.10
2023-08-28T18:00:00.437Z,6.20
2023-08-28T18:02:43.292Z,6.40
2023-08-28T18:05:16.485Z,5.40
2023-08-28T18:07:45.503Z,5.70
2023-08-28T18:10:14.727Z,5.50
2023-08-28T18:12:43.685Z,5.10
2023-08-28T18:15:12.458Z,5.10
2023-08-28T18:17:41.132Z,4.60
2023-08-28T18:20:09.138Z,4.70
2023-08-28T18:22:40.599Z,5.60
2023-08-28T18:25:12.492Z,4.80
2023-08-28T18:27:52.096Z,5.00
2023-08-28T18:30:27.174Z,4.80
2023-08-28T18:32:54.096Z,5.10
2023-08-28T18:35:21.007Z,5.00
2023-08-28T18:37:50.109Z,4.80
2023-08-28T18:40:16.905Z,5.10
2023-08-28T18:42:43.997Z,4.90
2023-08-28T18:45:13.310Z,4.70
2023-08-28T18:47:42.268Z,4.50
2023-08-28T18:50:11.104Z,4.90
2023-08-28T18:52:38.127Z,5.10
2023-08-28T18:55:08.039Z,4.70
2023-08-28T18:57:39.142Z,5.10
2023-08-28T19:00:06.590Z,4.90
2023-08-28T19:02:33.555Z,4.30
2023-08-28T19:05:00.557Z,4.30
2023-08-28T19:10:39.908Z,4.70
2023-08-28T19:15:37.733Z,5.00
2023-08-28T19:18:05.359Z,4.80
2023-08-28T19:20:36.176Z,4.40
2023-08-28T19:23:13.071Z,4.30
2023-08-28T19:25:39.610Z,4.30
2023-08-28T19:28:06.533Z,4.60
2023-08-28T19:30:34.083Z,4.30
2023-08-28T19:33:05.385Z,4.70
2023-08-28T19:35:31.916Z,4.80
2023-08-28T19:38:02.111Z,4.40
2023-08-28T19:40:28.849Z,4.60
2023-08-28T19:42:59.826Z,4.40
2023-08-28T19:45:28.729Z,4.90
2023-08-28T19:47:55.758Z,4.50
2023-08-28T19:50:22.690Z,4.90
2023-08-28T19:52:51.528Z,4.90
2023-08-28T19:56:23.666Z,4.90
2023-08-28T19:58:51.119Z,4.20
2023-08-28T20:01:20.283Z,4.50
2023-08-28T20:06:16.922Z,4.40
2023-08-28T20:08:46.119Z,4.70
2023-08-28T20:11:13.476Z,4.70
2023-08-28T20:13:41.302Z,4.60
2023-08-28T20:16:08.224Z,4.80
2023-08-28T20:18:34.927Z,4.20
2023-08-28T20:21:01.507Z,4.50
2023-08-28T20:23:29.175Z,4.20
2023-08-28T20:25:58.581Z,3.80
2023-08-28T20:28:25.334Z,4.50
2023-08-28T20:30:52.144Z,4.00
2023-08-28T20:33:19.402Z,3.50
2023-08-28T20:35:47.073Z,3.70
2023-08-28T20:38:13.627Z,4.00
2023-08-28T20:40:47.684Z,4.10
2023-08-28T20:43:17.182Z,3.70
2023-08-28T20:45:44.066Z,3.70
2023-08-28T20:48:12.732Z,4.00
2023-08-28T20:50:41.685Z,3.60
2023-08-28T20:53:13.263Z,3.70
2023-08-28T20:55:40.478Z,3.80
2023-08-28T20:58:07.197Z,3.70
2023-08-28T21:00:36.145Z,3.30
2023-08-28T21:03:02.708Z,3.90
2023-08-28T21:05:31.763Z,3.90
2023-08-28T21:07:58.890Z,3.60
2023-08-28T21:10:28.866Z,3.50
2023-08-28T21:12:57.950Z,3.60
2023-08-28T21:15:29.428Z,4.50
2023-08-28T21:17:59.068Z,4.10
2023-08-28T21:20:25.803Z,4.10
2023-08-28T21:22:54.461Z,4.60
2023-08-28T21:25:21.150Z,4.60
2023-08-28T21:27:48.763Z,4.70
2023-08-28T21:30:15.307Z,5.10
2023-08-28T21:32:47.692Z,5.10
2023-08-28T21:35:21.788Z,5.20
2023-08-28T21:37:48.590Z,5.50
2023-08-28T21:40:15.177Z,5.00
2023-08-28T21:42:41.698Z,4.90
2023-08-28T21:45:10.645Z,5.40
2023-08-28T21:47:37.410Z,4.80
2023-08-28T21:50:22.584Z,6.00
2023-08-28T21:53:11.527Z,5.70
2023-08-28T21:55:57.347Z,5.20
2023-08-28T21:58:42.783Z,5.60
2023-08-28T22:01:30.716Z,5.50
2023-08-28T22:04:18.788Z,6.00
2023-08-28T22:07:04.542Z,6.50
2023-08-28T22:09:38.717Z,6.90
2023-08-28T22:12:22.107Z,5.80
2023-08-28T22:14:51.550Z,6.50
2023-08-28T22:17:19.103Z,5.80
2023-08-28T22:19:48.003Z,5.20
2023-08-28T22:22:16.901Z,6.00
2023-08-28T22:24:44.415Z,6.00
2023-08-28T22:27:16.787Z,6.00
2023-08-28T22:29:43.849Z,6.40
2023-08-28T22:32:11.088Z,6.20
2023-08-28T22:34:38.213Z,6.30
2023-08-28T22:37:08.068Z,6.50
2023-08-28T22:39:35.147Z,6.30
2023-08-28T22:42:01.896Z,6.50
2023-08-28T22:44:37.510Z,6.30
2023-08-28T22:47:04.633Z,6.50
2023-08-28T22:49:31.688Z,6.80
2023-08-28T22:51:58.628Z,6.30
2023-08-28T22:54:25.680Z,6.00
2023-08-28T22:56:52.713Z,6.40
2023-08-28T22:59:19.656Z,7.50
2023-08-28T23:01:46.438Z,5.90
2023-08-28T23:04:13.514Z,6.50
2023-08-28T23:06:40.409Z,6.10
2023-08-28T23:09:07.851Z,6.10
2023-08-28T23:11:34.745Z,5.20
2023-08-28T23:14:01.611Z,6.50
2023-08-28T23:16:28.370Z,6.80
2023-08-28T23:18:55.902Z,6.10
2023-08-28T23:21:22.995Z,5.70
2023-08-28T23:23:50.143Z,6.50
2023-08-28T23:26:17.162Z,6.30
2023-08-28T23:28:44.238Z,6.40
2023-08-28T23:31:11.477Z,6.30
2023-08-28T23:33:39.698Z,5.70
2023-08-28T23:36:09.041Z,6.20
2023-08-28T23:38:37.241Z,5.60
2023-08-28T23:41:04.590Z,5.80
2023-08-28T23:43:31.859Z,6.20
2023-08-28T23:45:58.956Z,5.90
2023-08-28T23:48:29.691Z,5.50
2023-08-28T23:50:56.775Z,6.40
2023-08-28T23:53:23.709Z,6.00
2023-08-28T23:55:50.880Z,5.70
